sensor_id;sensor_type;location;lat;lon;timestamp;pressure;altitude;pressure_sealevel;temperature;humidity
70198;BME280;57582;-34.876;138.628;2023-01-13T00:02:31;100799;;;33.96;21.06
70198;BME280;57582;-34.876;138.628;2023-01-13T00:05:31;100801;;;34.24;22.01
70198;BME280;57582;-34.876;138.628;2023-01-13T00:08:32;100807;;;34.37;21.15
70198;BME280;57582;-34.876;138.628;2023-01-13T00:11:31;100793;;;34.66;21.32
70198;BME280;57582;-34.876;138.628;2023-01-13T00:14:33;100794;;;34.63;20.97
70198;BME280;57582;-34.876;138.628;2023-01-13T00:17:31;100799;;;34.84;20.18
70198;BME280;57582;-34.876;138.628;2023-01-13T00:20:32;100790;;;35.00;19.19
70198;BME280;57582;-34.876;138.628;2023-01-13T00:23:32;100782;;;35.12;20.02
70198;BME280;57582;-34.876;138.628;2023-01-13T00:26:32;100778;;;35.33;19.85
70198;BME280;57582;-34.876;138.628;2023-01-13T00:29:31;100777;;;35.43;20.03
70198;BME280;57582;-34.876;138.628;2023-01-13T00:32:32;100777;;;35.65;18.99
70198;BME280;57582;-34.876;138.628;2023-01-13T00:35:31;100776;;;35.92;17.85
70198;BME280;57582;-34.876;138.628;2023-01-13T00:38:33;100761;;;36.07;18.24
70198;BME280;57582;-34.876;138.628;2023-01-13T00:41:31;100756;;;36.26;18.50
70198;BME280;57582;-34.876;138.628;2023-01-13T00:44:32;100751;;;36.41;16.53
70198;BME280;57582;-34.876;138.628;2023-01-13T00:47:31;100752;;;36.41;16.84
70198;BME280;57582;-34.876;138.628;2023-01-13T00:50:32;100737;;;36.35;16.56
70198;BME280;57582;-34.876;138.628;2023-01-13T00:53:32;100740;;;36.34;16.86
70198;BME280;57582;-34.876;138.628;2023-01-13T00:56:32;100735;;;36.54;16.77
70198;BME280;57582;-34.876;138.628;2023-01-13T00:59:31;100732;;;36.74;15.91
70198;BME280;57582;-34.876;138.628;2023-01-13T01:02:32;100732;;;36.96;14.84
70198;BME280;57582;-34.876;138.628;2023-01-13T01:05:32;100727;;;37.15;15.35
70198;BME280;57582;-34.876;138.628;2023-01-13T01:08:32;100725;;;37.19;15.07
70198;BME280;57582;-34.876;138.628;2023-01-13T01:11:32;100729;;;37.11;15.21
70198;BME280;57582;-34.876;138.628;2023-01-13T01:14:32;100727;;;36.76;14.23
70198;BME280;57582;-34.876;138.628;2023-01-13T01:17:32;100725;;;36.92;15.71
70198;BME280;57582;-34.876;138.628;2023-01-13T01:20:32;100728;;;37.09;15.28
70198;BME280;57582;-34.876;138.628;2023-01-13T01:23:32;100721;;;37.28;14.84
70198;BME280;57582;-34.876;138.628;2023-01-13T01:26:32;100722;;;36.88;13.74
70198;BME280;57582;-34.876;138.628;2023-01-13T01:29:31;100717;;;36.95;14.07
70198;BME280;57582;-34.876;138.628;2023-01-13T01:32:32;100706;;;37.30;19.51
70198;BME280;57582;-34.876;138.628;2023-01-13T01:35:31;100711;;;37.11;21.81
70198;BME280;57582;-34.876;138.628;2023-01-13T01:38:32;100708;;;37.14;21.83
70198;BME280;57582;-34.876;138.628;2023-01-13T01:41:32;100714;;;37.40;21.58
70198;BME280;57582;-34.876;138.628;2023-01-13T01:47:31;100703;;;37.54;21.12
70198;BME280;57582;-34.876;138.628;2023-01-13T01:50:32;100702;;;37.36;22.76
70198;BME280;57582;-34.876;138.628;2023-01-13T01:53:31;100705;;;37.26;21.71
70198;BME280;57582;-34.876;138.628;2023-01-13T01:56:32;100695;;;37.18;21.35
70198;BME280;57582;-34.876;138.628;2023-01-13T01:59:31;100703;;;37.26;21.20
70198;BME280;57582;-34.876;138.628;2023-01-13T02:02:32;100693;;;37.41;21.40
70198;BME280;57582;-34.876;138.628;2023-01-13T02:05:31;100697;;;37.45;21.10
70198;BME280;57582;-34.876;138.628;2023-01-13T02:08:32;100697;;;37.38;20.26
70198;BME280;57582;-34.876;138.628;2023-01-13T02:11:32;100688;;;37.53;19.81
70198;BME280;57582;-34.876;138.628;2023-01-13T02:14:32;100681;;;37.79;18.99
70198;BME280;57582;-34.876;138.628;2023-01-13T02:17:44;100677;;;37.88;20.32
70198;BME280;57582;-34.876;138.628;2023-01-13T02:32:33;100675;;;38.06;19.24
70198;BME280;57582;-34.876;138.628;2023-01-13T02:38:34;100665;;;37.82;20.54
70198;BME280;57582;-34.876;138.628;2023-01-13T02:41:35;100659;;;37.81;20.40
70198;BME280;57582;-34.876;138.628;2023-01-13T02:44:37;100658;;;37.91;20.50
70198;BME280;57582;-34.876;138.628;2023-01-13T02:47:33;100651;;;37.84;19.76
70198;BME280;57582;-34.876;138.628;2023-01-13T02:50:34;100647;;;37.91;18.87
70198;BME280;57582;-34.876;138.628;2023-01-13T02:53:34;100640;;;37.93;19.12
70198;BME280;57582;-34.876;138.628;2023-01-13T02:56:33;100643;;;37.86;18.84
70198;BME280;57582;-34.876;138.628;2023-01-13T02:59:32;100642;;;37.75;19.16
70198;BME280;57582;-34.876;138.628;2023-01-13T03:02:32;100635;;;37.59;18.95
70198;BME280;57582;-34.876;138.628;2023-01-13T03:05:32;100633;;;37.62;19.03
70198;BME280;57582;-34.876;138.628;2023-01-13T03:11:34;100628;;;37.79;19.40
70198;BME280;57582;-34.876;138.628;2023-01-13T03:14:47;100625;;;37.98;19.24
70198;BME280;57582;-34.876;138.628;2023-01-13T03:17:36;100616;;;38.08;18.48
70198;BME280;57582;-34.876;138.628;2023-01-13T03:20:33;100617;;;38.29;18.43
70198;BME280;57582;-34.876;138.628;2023-01-13T03:23:42;100612;;;38.43;17.78
70198;BME280;57582;-34.876;138.628;2023-01-13T03:26:35;100603;;;38.39;16.73
70198;BME280;57582;-34.876;138.628;2023-01-13T03:32:36;100601;;;38.71;16.03
70198;BME280;57582;-34.876;138.628;2023-01-13T03:35:34;100606;;;38.77;15.93
70198;BME280;57582;-34.876;138.628;2023-01-13T03:38:33;100600;;;38.67;15.39
70198;BME280;57582;-34.876;138.628;2023-01-13T03:41:34;100596;;;38.78;16.17
70198;BME280;57582;-34.876;138.628;2023-01-13T03:44:39;100598;;;38.67;15.75
70198;BME280;57582;-34.876;138.628;2023-01-13T03:50:34;100590;;;38.69;15.94
70198;BME280;57582;-34.876;138.628;2023-01-13T03:53:36;100592;;;38.71;15.57
70198;BME280;57582;-34.876;138.628;2023-01-13T03:56:35;100582;;;38.82;15.70
70198;BME280;57582;-34.876;138.628;2023-01-13T03:59:33;100581;;;38.90;15.18
70198;BME280;57582;-34.876;138.628;2023-01-13T04:05:33;100581;;;39.13;15.38
70198;BME280;57582;-34.876;138.628;2023-01-13T04:08:32;100573;;;39.10;15.45
70198;BME280;57582;-34.876;138.628;2023-01-13T04:11:37;100580;;;38.98;15.38
70198;BME280;57582;-34.876;138.628;2023-01-13T04:14:32;100575;;;38.85;15.31
70198;BME280;57582;-34.876;138.628;2023-01-13T04:17:32;100569;;;38.62;15.29
70198;BME280;57582;-34.876;138.628;2023-01-13T04:20:32;100574;;;38.35;15.77
70198;BME280;57582;-34.876;138.628;2023-01-13T04:23:32;100562;;;38.26;15.30
70198;BME280;57582;-34.876;138.628;2023-01-13T04:26:32;100557;;;38.20;14.91
70198;BME280;57582;-34.876;138.628;2023-01-13T04:29:32;100562;;;38.11;15.01
70198;BME280;57582;-34.876;138.628;2023-01-13T04:32:32;100555;;;37.98;15.38
70198;BME280;57582;-34.876;138.628;2023-01-13T04:35:32;100555;;;38.00;16.04
70198;BME280;57582;-34.876;138.628;2023-01-13T04:38:32;100549;;;38.01;15.57
70198;BME280;57582;-34.876;138.628;2023-01-13T04:41:32;100546;;;38.13;15.59
70198;BME280;57582;-34.876;138.628;2023-01-13T04:44:32;100544;;;38.17;16.45
70198;BME280;57582;-34.876;138.628;2023-01-13T04:47:32;100536;;;38.21;17.00
70198;BME280;57582;-34.876;138.628;2023-01-13T04:50:32;100538;;;38.29;17.14
70198;BME280;57582;-34.876;138.628;2023-01-13T04:53:32;100532;;;38.27;17.10
70198;BME280;57582;-34.876;138.628;2023-01-13T04:56:32;100529;;;38.37;17.31
70198;BME280;57582;-34.876;138.628;2023-01-13T04:59:32;100533;;;38.34;16.59
70198;BME280;57582;-34.876;138.628;2023-01-13T05:02:32;100529;;;38.42;16.41
70198;BME280;57582;-34.876;138.628;2023-01-13T05:05:32;100527;;;38.38;16.42
70198;BME280;57582;-34.876;138.628;2023-01-13T05:08:32;100525;;;38.51;16.73
70198;BME280;57582;-34.876;138.628;2023-01-13T05:11:32;100527;;;38.59;16.31
70198;BME280;57582;-34.876;138.628;2023-01-13T05:14:32;100536;;;38.61;16.42
70198;BME280;57582;-34.876;138.628;2023-01-13T05:17:32;100524;;;38.52;16.69
70198;BME280;57582;-34.876;138.628;2023-01-13T05:20:32;100519;;;38.66;16.92
70198;BME280;57582;-34.876;138.628;2023-01-13T05:23:32;100514;;;38.84;16.63
70198;BME280;57582;-34.876;138.628;2023-01-13T05:26:32;100513;;;38.92;15.75
70198;BME280;57582;-34.876;138.628;2023-01-13T05:29:32;100504;;;38.97;15.66
70198;BME280;57582;-34.876;138.628;2023-01-13T05:32:33;100502;;;39.08;15.52
70198;BME280;57582;-34.876;138.628;2023-01-13T05:35:32;100502;;;39.07;15.80
70198;BME280;57582;-34.876;138.628;2023-01-13T05:38:32;100500;;;39.04;14.83
70198;BME280;57582;-34.876;138.628;2023-01-13T05:41:32;100504;;;38.96;14.84
70198;BME280;57582;-34.876;138.628;2023-01-13T05:44:33;100501;;;39.10;14.83
70198;BME280;57582;-34.876;138.628;2023-01-13T05:47:32;100490;;;39.11;15.33
70198;BME280;57582;-34.876;138.628;2023-01-13T05:50:32;100492;;;39.10;15.40
70198;BME280;57582;-34.876;138.628;2023-01-13T05:53:32;100497;;;39.07;15.01
70198;BME280;57582;-34.876;138.628;2023-01-13T05:56:32;100491;;;39.13;15.03
70198;BME280;57582;-34.876;138.628;2023-01-13T05:59:32;100491;;;39.20;15.06
70198;BME280;57582;-34.876;138.628;2023-01-13T06:02:32;100480;;;39.14;14.28
70198;BME280;57582;-34.876;138.628;2023-01-13T06:05:32;100486;;;39.23;14.39
70198;BME280;57582;-34.876;138.628;2023-01-13T06:08:32;100488;;;39.12;14.74
70198;BME280;57582;-34.876;138.628;2023-01-13T06:11:32;100484;;;39.12;14.04
70198;BME280;57582;-34.876;138.628;2023-01-13T06:14:32;100481;;;39.21;14.53
70198;BME280;57582;-34.876;138.628;2023-01-13T06:17:32;100483;;;39.20;14.00
70198;BME280;57582;-34.876;138.628;2023-01-13T06:20:32;100474;;;39.11;14.12
70198;BME280;57582;-34.876;138.628;2023-01-13T06:23:32;100477;;;39.18;14.51
70198;BME280;57582;-34.876;138.628;2023-01-13T06:26:35;100468;;;39.23;13.60
70198;BME280;57582;-34.876;138.628;2023-01-13T06:29:32;100467;;;39.36;14.36
70198;BME280;57582;-34.876;138.628;2023-01-13T06:32:33;100469;;;39.30;13.97
70198;BME280;57582;-34.876;138.628;2023-01-13T06:35:33;100458;;;39.03;14.04
70198;BME280;57582;-34.876;138.628;2023-01-13T06:38:33;100472;;;39.12;14.43
70198;BME280;57582;-34.876;138.628;2023-01-13T06:41:32;100469;;;39.16;13.36
70198;BME280;57582;-34.876;138.628;2023-01-13T06:44:32;100472;;;39.17;12.65
70198;BME280;57582;-34.876;138.628;2023-01-13T06:47:32;100473;;;39.16;12.94
70198;BME280;57582;-34.876;138.628;2023-01-13T06:50:32;100463;;;39.23;13.20
70198;BME280;57582;-34.876;138.628;2023-01-13T06:53:32;100458;;;39.35;11.49
70198;BME280;57582;-34.876;138.628;2023-01-13T06:56:32;100451;;;39.36;12.63
70198;BME280;57582;-34.876;138.628;2023-01-13T06:59:32;100447;;;39.43;13.05
70198;BME280;57582;-34.876;138.628;2023-01-13T07:02:32;100452;;;39.35;13.82
70198;BME280;57582;-34.876;138.628;2023-01-13T07:05:32;100453;;;39.31;13.83
70198;BME280;57582;-34.876;138.628;2023-01-13T07:08:32;100452;;;39.34;14.06
70198;BME280;57582;-34.876;138.628;2023-01-13T07:11:32;100450;;;39.45;14.04
70198;BME280;57582;-34.876;138.628;2023-01-13T07:14:33;100445;;;39.52;13.86
70198;BME280;57582;-34.876;138.628;2023-01-13T07:17:32;100451;;;39.44;14.22
70198;BME280;57582;-34.876;138.628;2023-01-13T07:20:32;100446;;;39.33;14.27
70198;BME280;57582;-34.876;138.628;2023-01-13T07:23:33;100441;;;39.41;14.23
70198;BME280;57582;-34.876;138.628;2023-01-13T07:26:32;100442;;;39.45;14.76
70198;BME280;57582;-34.876;138.628;2023-01-13T07:29:32;100435;;;39.53;14.11
70198;BME280;57582;-34.876;138.628;2023-01-13T07:32:33;100420;;;39.45;14.39
70198;BME280;57582;-34.876;138.628;2023-01-13T07:35:32;100434;;;39.54;14.31
70198;BME280;57582;-34.876;138.628;2023-01-13T07:38:34;100432;;;39.52;13.69
70198;BME280;57582;-34.876;138.628;2023-01-13T07:41:32;100429;;;39.58;13.63
70198;BME280;57582;-34.876;138.628;2023-01-13T07:44:32;100420;;;39.51;13.63
70198;BME280;57582;-34.876;138.628;2023-01-13T07:47:32;100422;;;39.45;13.63
70198;BME280;57582;-34.876;138.628;2023-01-13T07:50:32;100420;;;39.45;13.63
70198;BME280;57582;-34.876;138.628;2023-01-13T07:53:32;100420;;;39.33;13.52
70198;BME280;57582;-34.876;138.628;2023-01-13T07:56:32;100424;;;39.32;13.68
70198;BME280;57582;-34.876;138.628;2023-01-13T07:59:32;100416;;;39.32;13.64
70198;BME280;57582;-34.876;138.628;2023-01-13T08:02:32;100417;;;39.29;13.65
70198;BME280;57582;-34.876;138.628;2023-01-13T08:05:33;100432;;;39.27;13.51
70198;BME280;57582;-34.876;138.628;2023-01-13T08:08:32;100426;;;38.99;13.76
70198;BME280;57582;-34.876;138.628;2023-01-13T08:11:32;100426;;;39.09;13.59
70198;BME280;57582;-34.876;138.628;2023-01-13T08:14:32;100424;;;39.19;13.64
70198;BME280;57582;-34.876;138.628;2023-01-13T08:17:32;100427;;;39.29;13.97
70198;BME280;57582;-34.876;138.628;2023-01-13T08:20:33;100431;;;39.28;14.10
70198;BME280;57582;-34.876;138.628;2023-01-13T08:23:32;100431;;;39.34;14.03
70198;BME280;57582;-34.876;138.628;2023-01-13T08:26:33;100428;;;39.34;13.72
70198;BME280;57582;-34.876;138.628;2023-01-13T08:29:32;100431;;;39.07;13.69
70198;BME280;57582;-34.876;138.628;2023-01-13T08:32:33;100438;;;39.01;13.97
70198;BME280;57582;-34.876;138.628;2023-01-13T08:35:34;100438;;;38.89;14.21
70198;BME280;57582;-34.876;138.628;2023-01-13T08:38:33;100435;;;38.82;14.46
70198;BME280;57582;-34.876;138.628;2023-01-13T08:41:32;100439;;;38.18;14.53
70198;BME280;57582;-34.876;138.628;2023-01-13T08:44:33;100443;;;37.95;15.02
70198;BME280;57582;-34.876;138.628;2023-01-13T08:47:32;100444;;;37.94;15.08
70198;BME280;57582;-34.876;138.628;2023-01-13T08:50:33;100444;;;38.04;15.44
70198;BME280;57582;-34.876;138.628;2023-01-13T08:53:32;100445;;;37.83;15.51
70198;BME280;57582;-34.876;138.628;2023-01-13T08:56:33;100440;;;37.77;15.72
70198;BME280;57582;-34.876;138.628;2023-01-13T08:59:32;100441;;;37.64;15.52
70198;BME280;57582;-34.876;138.628;2023-01-13T09:02:33;100444;;;37.45;15.86
70198;BME280;57582;-34.876;138.628;2023-01-13T09:05:33;100448;;;37.13;15.95
70198;BME280;57582;-34.876;138.628;2023-01-13T09:08:33;100446;;;37.05;16.33
70198;BME280;57582;-34.876;138.628;2023-01-13T09:11:33;100448;;;37.07;16.17
70198;BME280;57582;-34.876;138.628;2023-01-13T09:14:33;100444;;;37.04;16.16
70198;BME280;57582;-34.876;138.628;2023-01-13T09:17:33;100444;;;37.05;16.03
70198;BME280;57582;-34.876;138.628;2023-01-13T09:20:34;100452;;;36.86;15.88
70198;BME280;57582;-34.876;138.628;2023-01-13T09:26:33;100455;;;36.88;16.32
70198;BME280;57582;-34.876;138.628;2023-01-13T09:29:32;100452;;;36.63;16.51
70198;BME280;57582;-34.876;138.628;2023-01-13T09:32:33;100457;;;36.15;16.16
70198;BME280;57582;-34.876;138.628;2023-01-13T09:35:32;100449;;;35.69;15.88
70198;BME280;57582;-34.876;138.628;2023-01-13T09:38:33;100451;;;35.58;16.40
70198;BME280;57582;-34.876;138.628;2023-01-13T09:41:33;100447;;;35.05;16.22
70198;BME280;57582;-34.876;138.628;2023-01-13T09:44:38;100449;;;35.10;16.28
70198;BME280;57582;-34.876;138.628;2023-01-13T09:47:34;100445;;;35.23;16.58
70198;BME280;57582;-34.876;138.628;2023-01-13T09:50:39;100452;;;35.17;16.65
70198;BME280;57582;-34.876;138.628;2023-01-13T09:53:33;100445;;;35.14;16.33
70198;BME280;57582;-34.876;138.628;2023-01-13T09:56:33;100452;;;35.05;16.36
70198;BME280;57582;-34.876;138.628;2023-01-13T09:59:32;100447;;;34.80;16.99
70198;BME280;57582;-34.876;138.628;2023-01-13T10:02:38;100448;;;34.67;16.92
70198;BME280;57582;-34.876;138.628;2023-01-13T10:05:35;100453;;;34.64;17.24
70198;BME280;57582;-34.876;138.628;2023-01-13T10:08:35;100447;;;34.31;17.84
70198;BME280;57582;-34.876;138.628;2023-01-13T10:11:34;100446;;;34.16;17.85
70198;BME280;57582;-34.876;138.628;2023-01-13T10:14:37;100457;;;34.10;18.00
70198;BME280;57582;-34.876;138.628;2023-01-13T10:17:38;100453;;;34.10;17.73
70198;BME280;57582;-34.876;138.628;2023-01-13T10:20:38;100453;;;34.23;17.51
70198;BME280;57582;-34.876;138.628;2023-01-13T10:23:37;100463;;;33.92;18.21
70198;BME280;57582;-34.876;138.628;2023-01-13T10:29:33;100462;;;33.63;18.61
70198;BME280;57582;-34.876;138.628;2023-01-13T10:32:33;100467;;;33.58;18.43
70198;BME280;57582;-34.876;138.628;2023-01-13T10:41:32;100458;;;32.89;19.36
70198;BME280;57582;-34.876;138.628;2023-01-13T10:44:45;100457;;;32.66;19.63
70198;BME280;57582;-34.876;138.628;2023-01-13T10:47:34;100456;;;32.61;19.42
70198;BME280;57582;-34.876;138.628;2023-01-13T10:50:33;100452;;;32.55;19.93
70198;BME280;57582;-34.876;138.628;2023-01-13T10:53:32;100452;;;32.68;19.53
70198;BME280;57582;-34.876;138.628;2023-01-13T10:56:33;100446;;;32.79;19.50
70198;BME280;57582;-34.876;138.628;2023-01-13T10:59:32;100447;;;32.78;19.66
70198;BME280;57582;-34.876;138.628;2023-01-13T11:02:33;100448;;;32.78;19.63
70198;BME280;57582;-34.876;138.628;2023-01-13T11:05:32;100445;;;32.85;19.59
70198;BME280;57582;-34.876;138.628;2023-01-13T11:08:42;100442;;;33.07;19.57
70198;BME280;57582;-34.876;138.628;2023-01-13T11:17:50;100443;;;32.32;19.92
70198;BME280;57582;-34.876;138.628;2023-01-13T11:20:36;100446;;;32.32;19.85
70198;BME280;57582;-34.876;138.628;2023-01-13T11:23:34;100443;;;32.25;19.84
70198;BME280;57582;-34.876;138.628;2023-01-13T11:26:42;100446;;;32.24;20.00
70198;BME280;57582;-34.876;138.628;2023-01-13T11:29:42;100446;;;32.29;20.08
70198;BME280;57582;-34.876;138.628;2023-01-13T11:32:37;100444;;;32.21;20.30
70198;BME280;57582;-34.876;138.628;2023-01-13T11:35:33;100446;;;32.17;20.44
70198;BME280;57582;-34.876;138.628;2023-01-13T11:38:50;100442;;;32.11;20.56
70198;BME280;57582;-34.876;138.628;2023-01-13T11:44:36;100440;;;31.95;20.73
70198;BME280;57582;-34.876;138.628;2023-01-13T11:47:33;100446;;;31.97;20.77
70198;BME280;57582;-34.876;138.628;2023-01-13T11:51:09;100442;;;31.94;20.88
70198;BME280;57582;-34.876;138.628;2023-01-13T12:02:51;100433;;;31.89;21.05
70198;BME280;57582;-34.876;138.628;2023-01-13T12:05:35;100433;;;31.78;21.20
70198;BME280;57582;-34.876;138.628;2023-01-13T12:11:36;100441;;;31.67;21.37
70198;BME280;57582;-34.876;138.628;2023-01-13T12:17:52;100434;;;31.69;21.68
70198;BME280;57582;-34.876;138.628;2023-01-13T12:20:38;100430;;;31.75;21.82
70198;BME280;57582;-34.876;138.628;2023-01-13T12:23:35;100431;;;31.72;21.97
70198;BME280;57582;-34.876;138.628;2023-01-13T12:26:35;100422;;;31.85;22.12
70198;BME280;57582;-34.876;138.628;2023-01-13T12:29:34;100424;;;31.48;22.16
70198;BME280;57582;-34.876;138.628;2023-01-13T12:32:35;100432;;;31.59;22.20
70198;BME280;57582;-34.876;138.628;2023-01-13T12:38:35;100424;;;31.36;22.34
70198;BME280;57582;-34.876;138.628;2023-01-13T12:44:33;100430;;;31.31;22.60
70198;BME280;57582;-34.876;138.628;2023-01-13T12:47:34;100438;;;31.42;22.51
70198;BME280;57582;-34.876;138.628;2023-01-13T12:50:35;100432;;;31.34;22.64
70198;BME280;57582;-34.876;138.628;2023-01-13T12:53:34;100431;;;31.26;22.84
70198;BME280;57582;-34.876;138.628;2023-01-13T12:56:35;100427;;;31.15;23.01
70198;BME280;57582;-34.876;138.628;2023-01-13T12:59:33;100426;;;31.06;23.12
70198;BME280;57582;-34.876;138.628;2023-01-13T13:02:34;100424;;;31.03;23.94
70198;BME280;57582;-34.876;138.628;2023-01-13T13:05:37;100422;;;30.75;23.69
70198;BME280;57582;-34.876;138.628;2023-01-13T13:08:42;100424;;;30.80;23.25
70198;BME280;57582;-34.876;138.628;2023-01-13T13:11:34;100429;;;30.88;23.54
70198;BME280;57582;-34.876;138.628;2023-01-13T13:26:37;100407;;;30.91;23.38
70198;BME280;57582;-34.876;138.628;2023-01-13T13:29:51;100420;;;30.88;23.44
70198;BME280;57582;-34.876;138.628;2023-01-13T13:41:33;100395;;;30.80;23.75
70198;BME280;57582;-34.876;138.628;2023-01-13T13:44:35;100392;;;30.73;24.00
70198;BME280;57582;-34.876;138.628;2023-01-13T13:47:34;100401;;;30.80;24.28
70198;BME280;57582;-34.876;138.628;2023-01-13T13:50:33;100397;;;30.68;24.16
70198;BME280;57582;-34.876;138.628;2023-01-13T13:53:34;100398;;;30.56;24.49
70198;BME280;57582;-34.876;138.628;2023-01-13T13:56:35;100396;;;30.49;24.47
70198;BME280;57582;-34.876;138.628;2023-01-13T13:59:33;100389;;;30.71;24.39
70198;BME280;57582;-34.876;138.628;2023-01-13T14:02:35;100386;;;30.27;24.81
70198;BME280;57582;-34.876;138.628;2023-01-13T14:05:33;100386;;;30.51;24.88
70198;BME280;57582;-34.876;138.628;2023-01-13T14:08:35;100381;;;30.75;24.65
70198;BME280;57582;-34.876;138.628;2023-01-13T14:11:33;100378;;;30.48;24.44
70198;BME280;57582;-34.876;138.628;2023-01-13T14:14:33;100376;;;30.52;24.61
70198;BME280;57582;-34.876;138.628;2023-01-13T14:17:33;100371;;;30.35;24.71
70198;BME280;57582;-34.876;138.628;2023-01-13T14:20:34;100371;;;30.58;24.75
70198;BME280;57582;-34.876;138.628;2023-01-13T14:23:33;100365;;;30.49;24.65
70198;BME280;57582;-34.876;138.628;2023-01-13T14:26:33;100367;;;30.77;24.61
70198;BME280;57582;-34.876;138.628;2023-01-13T14:29:33;100354;;;30.55;24.63
70198;BME280;57582;-34.876;138.628;2023-01-13T14:32:34;100355;;;30.49;24.71
70198;BME280;57582;-34.876;138.628;2023-01-13T14:35:33;100345;;;30.34;24.77
70198;BME280;57582;-34.876;138.628;2023-01-13T14:38:34;100347;;;30.37;24.85
70198;BME280;57582;-34.876;138.628;2023-01-13T14:41:34;100336;;;30.24;24.83
70198;BME280;57582;-34.876;138.628;2023-01-13T14:44:33;100337;;;30.33;24.70
70198;BME280;57582;-34.876;138.628;2023-01-13T14:47:33;100333;;;30.25;24.80
70198;BME280;57582;-34.876;138.628;2023-01-13T14:50:34;100337;;;30.35;25.01
70198;BME280;57582;-34.876;138.628;2023-01-13T14:53:37;100331;;;30.41;25.07
70198;BME280;57582;-34.876;138.628;2023-01-13T14:56:43;100326;;;30.28;25.16
70198;BME280;57582;-34.876;138.628;2023-01-13T14:59:41;100329;;;30.29;25.20
70198;BME280;57582;-34.876;138.628;2023-01-13T15:02:35;100321;;;30.35;25.36
70198;BME280;57582;-34.876;138.628;2023-01-13T15:05:34;100319;;;30.30;25.66
70198;BME280;57582;-34.876;138.628;2023-01-13T15:08:34;100318;;;30.33;25.86
70198;BME280;57582;-34.876;138.628;2023-01-13T15:11:33;100309;;;30.41;25.79
70198;BME280;57582;-34.876;138.628;2023-01-13T15:14:33;100312;;;30.33;26.00
70198;BME280;57582;-34.876;138.628;2023-01-13T15:17:33;100312;;;30.22;26.15
70198;BME280;57582;-34.876;138.628;2023-01-13T15:20:33;100301;;;30.26;26.09
70198;BME280;57582;-34.876;138.628;2023-01-13T15:23:33;100299;;;30.23;26.01
70198;BME280;57582;-34.876;138.628;2023-01-13T15:26:33;100296;;;30.31;25.97
70198;BME280;57582;-34.876;138.628;2023-01-13T15:29:33;100296;;;30.46;26.04
70198;BME280;57582;-34.876;138.628;2023-01-13T15:32:33;100289;;;30.43;25.79
70198;BME280;57582;-34.876;138.628;2023-01-13T15:35:33;100289;;;30.59;25.30
70198;BME280;57582;-34.876;138.628;2023-01-13T15:38:33;100288;;;30.63;25.10
70198;BME280;57582;-34.876;138.628;2023-01-13T15:41:33;100288;;;30.68;24.78
70198;BME280;57582;-34.876;138.628;2023-01-13T15:44:33;100285;;;30.60;24.53
70198;BME280;57582;-34.876;138.628;2023-01-13T15:47:33;100290;;;30.57;24.63
70198;BME280;57582;-34.876;138.628;2023-01-13T15:50:33;100283;;;30.45;24.09
70198;BME280;57582;-34.876;138.628;2023-01-13T15:53:33;100279;;;30.63;23.87
70198;BME280;57582;-34.876;138.628;2023-01-13T15:56:34;100278;;;30.72;23.80
70198;BME280;57582;-34.876;138.628;2023-01-13T15:59:33;100273;;;30.79;23.60
70198;BME280;57582;-34.876;138.628;2023-01-13T16:02:33;100277;;;30.98;23.30
70198;BME280;57582;-34.876;138.628;2023-01-13T16:05:33;100271;;;31.06;23.22
70198;BME280;57582;-34.876;138.628;2023-01-13T16:08:34;100270;;;31.07;23.00
70198;BME280;57582;-34.876;138.628;2023-01-13T16:11:33;100267;;;30.87;22.91
70198;BME280;57582;-34.876;138.628;2023-01-13T16:14:33;100261;;;30.61;23.04
70198;BME280;57582;-34.876;138.628;2023-01-13T16:17:33;100256;;;30.72;23.17
70198;BME280;57582;-34.876;138.628;2023-01-13T16:20:34;100247;;;30.70;23.03
70198;BME280;57582;-34.876;138.628;2023-01-13T16:23:33;100245;;;30.68;22.76
70198;BME280;57582;-34.876;138.628;2023-01-13T16:26:34;100242;;;30.61;22.78
70198;BME280;57582;-34.876;138.628;2023-01-13T16:29:33;100235;;;30.59;22.63
70198;BME280;57582;-34.876;138.628;2023-01-13T16:32:33;100231;;;30.51;22.12
70198;BME280;57582;-34.876;138.628;2023-01-13T16:35:33;100228;;;30.66;21.93
70198;BME280;57582;-34.876;138.628;2023-01-13T16:38:33;100223;;;30.59;21.13
70198;BME280;57582;-34.876;138.628;2023-01-13T16:41:33;100227;;;30.55;20.91
70198;BME280;57582;-34.876;138.628;2023-01-13T16:44:33;100228;;;30.59;20.75
70198;BME280;57582;-34.876;138.628;2023-01-13T16:47:33;100224;;;30.55;20.68
70198;BME280;57582;-34.876;138.628;2023-01-13T16:50:35;100233;;;30.51;20.50
70198;BME280;57582;-34.876;138.628;2023-01-13T16:53:33;100233;;;30.42;20.64
70198;BME280;57582;-34.876;138.628;2023-01-13T16:56:35;100230;;;30.37;20.63
70198;BME280;57582;-34.876;138.628;2023-01-13T16:59:33;100234;;;30.35;20.64
70198;BME280;57582;-34.876;138.628;2023-01-13T17:02:33;100226;;;30.28;20.45
70198;BME280;57582;-34.876;138.628;2023-01-13T17:05:33;100206;;;30.34;20.28
70198;BME280;57582;-34.876;138.628;2023-01-13T17:08:33;100215;;;30.36;20.05
70198;BME280;57582;-34.876;138.628;2023-01-13T17:11:33;100212;;;30.30;19.91
70198;BME280;57582;-34.876;138.628;2023-01-13T17:14:33;100216;;;30.35;19.92